Terminal Aerodrome Forecast
Issued by NWS Charleston, SC

Home | Current Version | Previous Version | Text Only | Print | Product List | Glossary On
Versions: 1 2 3 4 5 6 7 8 9 10 11 12 13 14 15 16
404
FTUS42 KCHS 141737
TAFCHS
TAF
KCHS 141737Z 1418/1518 05010KT P6SM SCT050 BKN250
     FM142200 06009KT P6SM SCT025 BKN035
     FM150600 05008KT P6SM SCT012 OVC020
     FM150900 06006KT P6SM -DZ SCT008 OVC015=

USA.gov is the U.S. government's official web portal to all federal, state and local government web resources and services.